KACY

Atlantic City International Airport

Atlantic City, New Jersey, USA
METAR KACY 250554Z 28010KT 10SM CLR 23/18 A2985 RMK AO2 SLP108 T02280178 10272 20228 50001 $
Observed Flight Rules
Jun-25 @ 05:54 UTC (24 minutes ago) Visual Flight Rules
Wind Visibility Clouds
280° at 10 knots 10 miles
  • Clear skies
Temperatures Readings
Current 23°C / 73°F
Dewpoint 18°C / 64°F
Humidity 74%
Altimeter 29.85" Hg
Pressure 1010.8 hPa
Elevation 23
METAR KACY 250554Z 28010KT 10SM CLR 23/18 A2985 RMK AO2 SLP108 T02280178 10272 20228 50001 $
Observed Flight Rules
Jun-25 @ 05:54 UTC
(24 minutes ago)
VFR
Wind Visibility
280° at 10 knots 10 miles
Clouds
  • Clear skies
Temperature Dewpoint
23°C / 73°F 18°C / 64°F
Humidity Altimeter Pressure
74% 29.85" Hg 1010.8 hPa